Latest Coastal Weather Observations for Stenhouse Bay

IDS60701

Issued at 4:31 am CDT Tuesday 21 February 2017 (issued every 10 minutes, with the page automatically refreshed every 10 minutes)

About coastal observations | Map of coastal stations | Coastal observations for SA | Marine services | Other Formats
Station Details ID: 022049 Name: STENHOUSE BAY Lat: -35.28 Lon: 136.94 Height: 42.0 m
Data from the previous 72 hours. | See also: Recent months at Stenhouse Bay
Date/Time
CDT
Temp
°C
Wind Pressure Rain since
9am
mm
Weather Cloud Vis
km
Sea
Height
m
Swell
Dir  Spd
kts
Gust
kts
hPa Trend Height
m
Period
s
Dir
21/04:00am 16.3 ENE 10 15 1017.3 - 0.2 - - - - - - -
21/03:30am 16.3 E 13 17 1017.1 - 0.2 - - - - - - -
21/03:00am 16.1 E 12 17 1017.3 - 0.2 - - - - - - -
21/02:30am 15.9 E 12 15 1017.7 - 0.2 - - - - - - -
21/02:00am 15.9 E 13 16 1017.9 - 0.2 - - - - - - -
21/01:30am 15.9 E 14 18 1017.9 - 0.2 - - - - - - -
21/01:00am 15.8 E 14 17 1018.2 - 0.2 - - - - - - -
21/12:30am 15.5 ESE 13 16 1018.7 - 0.2 - - - - - - -
21/12:00am 15.6 ESE 12 16 1019.1 - 0.2 - - - - - - -
 
Date/Time
CDT
Temp
°C
Wind Pressure Rain since
9am
mm
Weather Cloud Vis
km
Sea
Height
m
Swell
Dir  Spd
kts
Gust
kts
hPa Trend Height
m
Period
s
Dir
20/11:30pm 15.7 ESE 13 17 1019.2 - 0.2 - - - - - - -
20/11:00pm 16.0 SE 14 18 1019.5 - 0.2 - - - - - - -
20/10:30pm 16.4 ESE 13 17 1019.3 - 0.2 - - - - - - -
20/10:00pm 16.9 ESE 11 17 1019.2 - 0.2 - - - - - - -
20/09:30pm 17.4 E 9 13 1019.0 - 0.2 - - - - - - -
20/09:00pm 16.9 SSE 5 7 1018.8 - 0.2 - - - - - - -
20/08:30pm 17.4 SSE 4 5 1018.5 - 0.2 - - - - - - -
20/08:00pm 17.6 S 6 8 1018.4 - 0.2 - - - - - - -
20/07:30pm 17.9 S 6 8 1018.1 - 0.2 - - - - - - -
20/07:00pm 18.6 S 6 8 1017.8 - 0.2 - - - - - - -
20/06:30pm 18.9 SSW 7 11 1017.8 - 0.2 - - - - - - -
20/06:00pm 19.5 SW 7 10 1017.8 - 0.2 - - - - - - -
20/05:30pm 19.8 SSW 8 11 1017.4 - 0.2 - - - - - - -
20/05:00pm 20.1 SW 7 9 1017.3 - 0.2 - - - - - - -
20/04:30pm 20.4 SW 7 11 1017.2 - 0.2 - - - - - - -
20/04:00pm 21.0 SW 6 9 1017.3 - 0.2 - - - - - - -
20/03:30pm 20.5 SSW 7 10 1017.6 - 0.2 - - - - - - -
20/03:00pm 20.3 SSW 6 9 1018.1 - 0.2 - - - - - - -
20/02:30pm 19.9 SSW 5 7 1018.3 - 0.2 - - - - - - -
20/02:00pm 19.9 S 6 8 1018.3 - 0.2 - - - - - - -
20/01:30pm 19.9 S 6 7 1018.3 - 0.2 - - - - - - -
20/01:00pm 19.0 S 6 8 1018.6 - 0.2 - - - - - - -
20/12:30pm 18.4 SSE 6 8 1018.8 - 0.2 - - - - - - -
20/12:00pm 18.5 SSE 7 9 1019.0 - 0.0 - - - - - - -
20/11:30am 18.3 SSE 7 8 1019.2 - 0.0 - - - - - - -
20/11:00am 18.1 SSE 7 8 1019.2 - 0.0 - - - - - - -
20/10:30am 16.3 SSE 7 9 1019.2 - 0.0 - - - - - - -
20/10:00am 16.6 S 6 8 1019.2 - 0.0 - - - - - - -
20/09:30am 16.7 S 5 7 1019.2 - 0.0 - - - - - - -
20/09:00am 16.2 SSW 3 6 1018.9 - 0.2 - - - - - - -
20/08:30am 16.1 S 3 5 1018.7 - 0.2 - - - - - - -
20/08:00am 15.3 S 5 8 1018.4 - 0.2 - - - - - - -
20/07:30am 15.0 S 7 10 1018.1 - 0.2 - - - - - - -
20/07:00am 14.3 S 6 8 1017.8 - 0.2 - - - - - - -
20/06:30am 14.3 S 6 8 1017.4 - 0.2 - - - - - - -
20/06:00am 14.6 SSE 8 10 1017.1 - 0.2 - - - - - - -
20/05:30am 14.8 SSE 12 15 1016.9 - 0.2 - - - - - - -
20/05:00am 14.4 S 10 13 1016.8 - 0.2 - - - - - - -
20/04:30am 13.9 SSW 4 9 1016.9 - 0.2 - - - - - - -
20/04:00am 15.2 S 9 13 1016.8 - 0.0 - - - - - - -
20/03:30am 15.3 S 12 17 1016.8 - 0.0 - - - - - - -
20/03:00am 15.0 S 12 16 1016.9 - 0.0 - - - - - - -
20/02:30am 15.1 SSE 13 16 1017.0 - 0.0 - - - - - - -
20/02:00am 15.3 SSW 10 13 1017.2 - 0.0 - - - - - - -
20/01:30am 15.5 SSW 11 15 1017.3 - 0.0 - - - - - - -
20/01:00am 15.7 S 12 17 1017.6 - 0.0 - - - - - - -
20/12:30am 15.7 SSW 11 15 1017.8 - 0.0 - - - - - - -
20/12:00am 15.3 SSW 11 15 1017.8 - 0.0 - - - - - - -
 
Date/Time
CDT
Temp
°C
Wind Pressure Rain since
9am
mm
Weather Cloud Vis
km
Sea
Height
m
Swell
Dir  Spd
kts
Gust
kts
hPa Trend Height
m
Period
s
Dir
19/11:30pm 15.1 SSW 12 17 1017.9 - 0.0 - - - - - - -
19/11:00pm 15.2 SSW 12 16 1018.0 - 0.0 - - - - - - -
19/10:30pm 15.5 S 12 17 1017.9 - 0.0 - - - - - - -
19/10:00pm 15.5 S 14 18 1017.9 - 0.0 - - - - - - -
19/09:30pm 16.0 SW 10 14 1017.6 - 0.0 - - - - - - -
19/09:00pm 16.2 SSW 14 19 1017.3 - 0.0 - - - - - - -
19/08:30pm 15.8 SSW 13 21 1017.3 - 0.0 - - - - - - -
19/08:00pm 15.6 SSW 16 23 1017.2 - 0.0 - - - - - - -
19/07:30pm 16.3 SW 11 17 1017.1 - 0.0 - - - - - - -
19/07:00pm 16.1 SW 13 19 1016.9 - 0.0 - - - - - - -
19/06:30pm 16.8 SW 15 19 1016.7 - 0.0 - - - - - - -
19/06:00pm 16.8 SW 14 18 1016.7 - 0.0 - - - - - - -
19/05:30pm 18.2 SW 14 18 1016.7 - 0.0 - - - - - - -
19/05:00pm 17.4 SW 16 22 1016.7 - 0.0 - - - - - - -
19/04:30pm 17.8 SW 15 21 1016.8 - 0.0 - - - - - - -
19/04:00pm 17.6 WSW 14 20 1016.8 - 0.0 - - - - - - -
19/03:30pm 19.5 SW 13 19 1016.9 - 0.0 - - - - - - -
19/03:00pm 19.3 SW 13 18 1017.2 - 0.0 - - - - - - -
19/02:30pm 17.8 SW 14 19 1017.7 - 0.0 - - - - - - -
19/02:00pm 17.0 SW 14 18 1017.7 - 0.0 - - - - - - -
19/01:30pm 16.9 SW 17 23 1017.7 - 0.0 - - - - - - -
19/01:00pm 19.5 SW 12 16 1017.8 - 0.0 - - - - - - -
19/12:30pm 19.3 SW 12 19 1017.9 - 0.0 - - - - - - -
19/12:00pm 18.7 SW 12 18 1018.2 - 0.0 - - - - - - -
19/11:30am 18.9 SW 10 15 1018.3 - 0.0 - - - - - - -
19/11:00am 17.9 SW 13 19 1018.4 - 0.0 - - - - - - -
19/10:30am 16.7 WSW 12 19 1018.4 - 0.0 - - - - - - -
19/10:00am 17.0 SSW 12 18 1018.3 - 0.0 - - - - - - -
19/09:30am 16.1 SSW 11 17 1018.2 - 0.0 - - - - - - -
19/09:00am 16.4 SSW 12 18 1017.9 - 1.6 - - - - - - -
19/08:30am 15.9 SSW 13 18 1017.6 - 1.6 - - - - - - -
19/08:00am 15.7 SSW 12 19 1017.4 - 1.6 - - - - - - -
19/07:30am 15.2 SSW 18 23 1017.1 - 1.6 - - - - - - -
19/07:00am 15.3 SSW 12 17 1017.1 - 1.6 - - - - - - -
19/06:30am 14.9 SSW 13 19 1017.0 - 1.6 - - - - - - -
19/06:00am 15.1 SSW 14 19 1016.8 - 1.6 - - - - - - -
19/05:30am 15.3 SSW 14 19 1016.7 - 1.6 - - - - - - -
19/05:00am 15.1 SSW 18 25 1016.8 - 1.6 - - - - - - -
19/04:30am 15.1 SW 11 17 1016.8 - 1.6 - - - - - - -
19/04:00am 14.9 SSW 13 20 1016.9 - 1.6 - - - - - - -
19/03:30am 14.9 SW 13 19 1017.0 - 1.6 - - - - - - -
19/03:00am 14.8 SW 14 22 1017.1 - 1.6 - - - - - - -
19/02:30am 15.1 SSW 13 18 1017.2 - 1.6 - - - - - - -
19/02:00am 15.4 SSW 16 25 1017.6 - 1.6 - - - - - - -
19/01:58am 15.6 SSW 14 25 1017.7 - 1.6 - - - - - - -
19/01:30am 15.3 SW 9 15 1018.0 - 1.6 - - - - - - -
19/01:00am 15.0 S 14 19 1018.3 - 1.6 - - - - - - -
19/12:30am 14.6 SSW 20 27 1018.4 - 1.6 - - - - - - -
19/12:21am 15.3 S 15 27 1018.4 - 1.6 - - - - - - -
19/12:00am 15.1 SSW 12 17 1018.4 - 1.6 - - - - - - -
 
Date/Time
CDT
Temp
°C
Wind Pressure Rain since
9am
mm
Weather Cloud Vis
km
Sea
Height
m
Swell
Dir  Spd
kts
Gust
kts
hPa Trend Height
m
Period
s
Dir
18/11:30pm 14.8 S 13 17 1018.3 - 1.6 - - - - - - -
18/11:00pm 15.0 S 16 23 1018.2 - 1.6 - - - - - - -
18/10:30pm 15.1 SSW 19 27 1018.3 - 1.6 - - - - - - -
18/10:22pm 15.6 SSW 15 25 1018.2 - 1.6 - - - - - - -
18/10:00pm 15.5 SSW 14 19 1018.2 - 1.6 - - - - - - -
18/09:30pm 15.4 SSW 16 23 1018.1 - 1.6 - - - - - - -
18/09:00pm 15.6 SSW 15 23 1017.8 - 1.6 - - - - - - -
18/08:30pm 15.4 SSW 14 22 1017.7 - 1.6 - - - - - - -
18/08:00pm 15.2 SSW 14 22 1017.6 - 1.6 - - - - - - -
18/07:30pm 16.0 SSW 17 25 1017.1 - 1.6 - - - - - - -
18/07:00pm 16.2 SSW 18 26 1016.9 - 1.6 - - - - - - -
18/06:30pm 17.0 SW 14 19 1016.8 - 1.6 - - - - - - -
18/06:00pm 17.4 SW 12 21 1016.7 - 1.6 - - - - - - -
18/05:30pm 17.5 SW 15 21 1016.7 - 1.6 - - - - - - -
18/05:00pm 18.0 SW 15 20 1016.7 - 1.6 - - - - - - -
18/04:30pm 17.9 SW 15 21 1016.8 - 1.6 - - - - - - -
18/04:00pm 18.4 SW 14 20 1016.9 - 1.6 - - - - - - -
18/03:30pm 18.3 SW 15 23 1016.9 - 1.6 - - - - - - -
18/03:00pm 18.7 SW 13 23 1017.1 - 1.6 - - - - - - -
18/02:30pm 18.4 SW 15 22 1017.1 - 1.6 - - - - - - -
18/02:00pm 18.3 SW 13 20 1017.3 - 1.6 - - - - - - -
18/01:30pm 17.0 SSW 15 23 1017.2 - 1.6 - - - - - - -
18/01:00pm 16.6 SW 17 25 1016.9 - 1.6 - - - - - - -
18/12:49pm 17.2 SSW 16 26 1016.8 - 1.6 - - - - - - -
18/12:30pm 18.0 SW 14 20 1016.9 - 1.6 - - - - - - -
18/12:00pm 17.0 SW 13 19 1016.9 - 1.6 Recent precip. - - - - - -
18/11:30am 15.1 SSW 14 22 1017.0 - 1.6 - - - - - - -
18/11:00am 17.0 SSW 14 21 1017.0 - 1.2 - - - - - - -
18/10:30am 16.5 SW 13 21 1016.8 - 1.2 - - - - - - -
18/10:00am 15.5 SW 15 21 1016.6 - 1.2 - - - - - - -
18/09:30am 14.7 SSW 15 21 1016.2 - 1.2 - - - - - - -
18/09:08am 14.1 SSW 15 26 1016.2 - 1.2 - - - - - - -
18/09:00am 16.4 SW 14 21 1016.0 - 0.4 - - - - - - -
18/08:30am 15.8 SSW 13 20 1015.6 - 0.4 - - - - - - -
18/08:12am 15.3 SSW 17 26 1015.5 - 0.4 - - - - - - -
18/08:00am 16.0 SW 15 23 1015.4 - 0.4 - - - - - - -
18/07:30am 15.6 SW 17 23 1015.0 - 0.4 - - - - - - -
18/07:00am 15.1 SW 15 22 1014.8 - 0.4 - - - - - - -
18/06:30am 15.6 SW 15 21 1014.4 - 0.4 - - - - - - -
18/06:00am 13.9 SW 15 26 1014.2 - 0.4 Recent precip. - - - - - -
18/05:43am 15.1 WSW 18 32 1014.0 - 0.2 - - - - - - -
18/05:40am 15.5 WSW 16 32 1013.8 - 0.2 - - - - - - -
18/05:30am 15.6 WSW 12 18 1013.9 - 0.2 - - - - - - -
18/05:00am 15.6 WSW 13 19 1014.1 - 0.2 - - - - - - -

Other Formats:

Comma delimited format used in spreadsheet applications
http://www.bom.gov.au/fwo/IDS60701/IDS60701.95806.axf

JavaScript Object Notation format (JSON) in row-major order
http://www.bom.gov.au/fwo/IDS60701/IDS60701.95806.json